createdAt,value
2023-03-27T00:01:57.568Z,98118.16
2023-03-27T00:07:03.896Z,98119.94
2023-03-27T00:12:11.181Z,98110.41
2023-03-27T00:17:16.279Z,98117.34
2023-03-27T00:22:20.984Z,98107.88
2023-03-27T00:27:28.665Z,98119.09
2023-03-27T00:32:33.782Z,98113.09
2023-03-27T00:37:38.688Z,98103.50
2023-03-27T00:42:46.011Z,98100.88
2023-03-27T00:47:55.393Z,98102.63
2023-03-27T00:53:07.395Z,98096.63
2023-03-27T00:58:19.966Z,98087.97
2023-03-27T01:03:28.327Z,98085.41
2023-03-27T01:08:38.155Z,98071.56
2023-03-27T01:14:00.344Z,98064.47
2023-03-27T01:19:42.338Z,98063.72
2023-03-27T01:25:28.343Z,98061.09
2023-03-27T01:30:42.389Z,98052.50
2023-03-27T01:36:15.722Z,98049.09
2023-03-27T01:41:30.360Z,98044.84
2023-03-27T01:46:37.840Z,98043.13
2023-03-27T01:51:49.012Z,98036.19
2023-03-27T01:57:02.723Z,98032.81
2023-03-27T02:02:13.755Z,98043.09
2023-03-27T02:07:25.195Z,98032.75
2023-03-27T02:12:34.870Z,98027.59
2023-03-27T02:17:43.345Z,98036.19
2023-03-27T02:22:49.013Z,98032.69
2023-03-27T02:28:06.124Z,98027.59
2023-03-27T02:33:23.626Z,98021.53
2023-03-27T02:38:34.767Z,98019.81
2023-03-27T02:43:49.309Z,97999.13
2023-03-27T02:49:05.042Z,97998.34
2023-03-27T02:54:14.764Z,98000.91
2023-03-27T02:59:25.915Z,97994.06
2023-03-27T03:04:32.828Z,97994.91
2023-03-27T03:10:11.780Z,97990.53
2023-03-27T03:15:18.996Z,97988.03
2023-03-27T03:20:25.551Z,97986.44
2023-03-27T03:25:31.665Z,97973.56
2023-03-27T03:30:39.149Z,97962.38
2023-03-27T03:35:48.761Z,97964.22
2023-03-27T03:41:03.110Z,97971.16
2023-03-27T03:46:10.114Z,97961.66
2023-03-27T03:51:15.761Z,97948.78
2023-03-27T03:56:20.187Z,97942.69
2023-03-27T04:01:28.296Z,97946.94
2023-03-27T04:06:38.555Z,97942.63
2023-03-27T04:11:45.685Z,97939.16
2023-03-27T04:17:34.540Z,97929.53
2023-03-27T04:22:46.534Z,97937.91
2023-03-27T04:27:53.951Z,97934.22
2023-03-27T04:33:23.617Z,97924.47
2023-03-27T04:38:43.037Z,97933.69
2023-03-27T04:43:52.085Z,97927.31
2023-03-27T04:49:02.012Z,97931.16
2023-03-27T04:54:27.405Z,97912.00
2023-03-27T04:59:32.347Z,97905.56
2023-03-27T05:04:59.063Z,97901.03
2023-03-27T05:10:10.655Z,97910.34
2023-03-27T05:15:17.169Z,97904.00
2023-03-27T05:20:25.281Z,97908.88
2023-03-27T05:25:29.657Z,97909.75
2023-03-27T05:30:35.548Z,97895.97
2023-03-27T05:36:03.281Z,97903.50
2023-03-27T05:41:10.014Z,97908.44
2023-03-27T05:46:21.305Z,97894.19
2023-03-27T05:51:39.362Z,97869.84
2023-03-27T06:19:02.930Z,97825.59
2023-03-27T06:31:14.932Z,97816.69
2023-03-27T06:36:33.271Z,97799.00
2023-03-27T06:41:37.600Z,97792.16
2023-03-27T06:46:45.447Z,97792.69
2023-03-27T06:52:18.435Z,97787.16
2023-03-27T06:57:22.850Z,97788.16
2023-03-27T07:02:32.023Z,97777.59
2023-03-27T07:13:24.078Z,97775.44
2023-03-27T07:18:29.095Z,97761.91
2023-03-27T07:23:32.656Z,97752.03
2023-03-27T07:28:42.354Z,97751.47
2023-03-27T07:33:49.353Z,97726.41
2023-03-27T07:38:53.025Z,97727.00
2023-03-27T07:44:06.015Z,97716.22
2023-03-27T07:49:39.967Z,97704.75
2023-03-27T07:54:49.076Z,97713.66
2023-03-27T07:59:56.526Z,97705.25
2023-03-27T08:05:37.203Z,97709.31
2023-03-27T08:10:46.501Z,97685.81
2023-03-27T08:15:53.074Z,97678.88
2023-03-27T08:21:05.647Z,97684.88
2023-03-27T08:26:10.666Z,97681.53
2023-03-27T08:31:31.535Z,97684.34
2023-03-27T08:36:42.558Z,97659.25
2023-03-27T08:41:55.146Z,97656.94
2023-03-27T08:47:12.953Z,97633.69
2023-03-27T08:52:27.377Z,97654.91
2023-03-27T08:57:34.512Z,97620.50
2023-03-27T09:02:58.171Z,97606.28
2023-03-27T09:08:12.773Z,97606.94
2023-03-27T09:13:19.990Z,97595.44
2023-03-27T09:18:28.099Z,97589.53
2023-03-27T09:23:40.987Z,97577.38
2023-03-27T09:28:51.401Z,97574.06
2023-03-27T09:34:04.518Z,97557.41
2023-03-27T09:39:15.548Z,97551.97
2023-03-27T09:44:25.538Z,97564.78
2023-03-27T09:49:32.618Z,97548.88
2023-03-27T09:54:54.005Z,97549.44
2023-03-27T10:00:28.600Z,97522.88
2023-03-27T10:05:33.844Z,97532.97
2023-03-27T10:10:45.905Z,97531.34
2023-03-27T10:16:18.171Z,97528.50
2023-03-27T10:21:35.587Z,97515.63
2023-03-27T10:26:42.808Z,97515.97
2023-03-27T10:31:52.114Z,97499.72
2023-03-27T10:37:21.748Z,97467.38
2023-03-27T10:42:34.504Z,97461.53
2023-03-27T10:47:38.629Z,97451.16
2023-03-27T10:52:51.986Z,97420.06
2023-03-27T10:58:24.840Z,97417.50
2023-03-27T11:03:36.013Z,97408.41
2023-03-27T11:08:53.492Z,97372.94
2023-03-27T11:14:06.180Z,97384.91
2023-03-27T11:19:40.644Z,97367.13
2023-03-27T11:25:21.279Z,97368.97
2023-03-27T11:30:45.486Z,97354.34
2023-03-27T11:35:54.788Z,97335.09
2023-03-27T11:41:24.782Z,97325.41
2023-03-27T11:46:44.285Z,97321.84
2023-03-27T11:52:02.797Z,97325.53
2023-03-27T11:57:14.467Z,97316.53
2023-03-27T12:02:58.680Z,97316.19
2023-03-27T12:08:13.581Z,97295.47
2023-03-27T12:14:14.022Z,97270.72
2023-03-27T12:19:55.544Z,97263.41
2023-03-27T12:25:27.268Z,97251.47
2023-03-27T12:30:57.567Z,97260.94
2023-03-27T12:36:06.661Z,97245.50
2023-03-27T12:41:21.521Z,97254.91
2023-03-27T12:46:39.162Z,97248.50
2023-03-27T12:52:04.587Z,97246.16
2023-03-27T12:57:43.708Z,97236.91
2023-03-27T13:03:28.473Z,97252.63
2023-03-27T13:09:19.605Z,97238.41
2023-03-27T13:15:11.631Z,97261.09
2023-03-27T13:20:28.701Z,97250.94
2023-03-27T13:25:43.495Z,97231.75
2023-03-27T13:30:50.074Z,97214.88
2023-03-27T13:36:24.970Z,97200.34
2023-03-27T13:41:53.675Z,97190.88
2023-03-27T13:47:16.182Z,97191.97
2023-03-27T13:53:00.551Z,97181.91
2023-03-27T13:58:39.969Z,97150.63
2023-03-27T14:04:15.748Z,97144.66
2023-03-27T14:09:35.464Z,97136.03
2023-03-27T14:14:59.753Z,97128.38
2023-03-27T14:20:23.676Z,97136.97
2023-03-27T14:25:34.192Z,97120.09
2023-03-27T14:30:56.334Z,97111.78
2023-03-27T14:36:26.032Z,97121.78
2023-03-27T14:41:33.136Z,97097.91
2023-03-27T14:46:39.399Z,97103.75
2023-03-27T14:51:49.727Z,97095.97
2023-03-27T14:57:15.190Z,97095.25
2023-03-27T15:02:32.006Z,97096.47
2023-03-27T15:07:42.168Z,97089.22
2023-03-27T15:12:57.482Z,97078.63
2023-03-27T15:18:05.167Z,97071.66
2023-03-27T15:23:17.152Z,97059.16
2023-03-27T15:28:27.549Z,97056.81
2023-03-27T15:33:36.719Z,97062.28
2023-03-27T15:38:41.208Z,97055.34
2023-03-27T15:43:46.895Z,97052.22
2023-03-27T15:48:55.551Z,97049.22
2023-03-27T15:53:59.168Z,97031.19
2023-03-27T15:59:06.672Z,97030.56
2023-03-27T16:04:14.645Z,97024.03
2023-03-27T16:09:25.738Z,97008.16
2023-03-27T16:14:36.070Z,97005.91
2023-03-27T16:19:44.161Z,96994.88
2023-03-27T16:24:47.619Z,96978.88
2023-03-27T16:29:53.010Z,96988.66
2023-03-27T16:34:56.552Z,96992.53
2023-03-27T16:39:59.962Z,96993.59
2023-03-27T16:45:05.688Z,96977.03
2023-03-27T16:50:13.742Z,96976.53
2023-03-27T16:55:17.474Z,96971.00
2023-03-27T17:00:23.006Z,96968.31
2023-03-27T17:05:26.652Z,96972.84
2023-03-27T17:10:31.184Z,96975.66
2023-03-27T17:15:38.644Z,96968.09
2023-03-27T17:20:42.381Z,97054.84
2023-03-27T17:25:46.210Z,97100.59
2023-03-27T17:31:03.330Z,97047.72
2023-03-27T17:36:12.579Z,97089.78
2023-03-27T17:41:17.630Z,97055.38
2023-03-27T17:46:24.126Z,97072.00
2023-03-27T17:51:28.041Z,97045.91
2023-03-27T17:56:31.513Z,97047.72
2023-03-27T18:01:38.833Z,97041.72
2023-03-27T18:06:42.626Z,97035.72
2023-03-27T18:11:46.130Z,97050.34
2023-03-27T18:16:51.023Z,97050.47
2023-03-27T18:21:54.508Z,97071.03
2023-03-27T18:27:00.742Z,97065.78
2023-03-27T18:32:07.182Z,97071.69
2023-03-27T18:37:15.160Z,97084.44
2023-03-27T18:42:18.605Z,97100.59
2023-03-27T18:47:26.497Z,97097.22
2023-03-27T18:52:30.029Z,97080.56
2023-03-27T18:57:34.456Z,97074.06
2023-03-27T19:02:39.338Z,97052.56
2023-03-27T19:07:44.644Z,97050.88
2023-03-27T19:12:50.714Z,97030.81
2023-03-27T19:18:30.752Z,97028.25
2023-03-27T19:23:53.063Z,97013.47
2023-03-27T19:29:01.905Z,97013.72
2023-03-27T19:34:06.936Z,97018.81
2023-03-27T19:39:10.528Z,96998.41
2023-03-27T19:44:16.120Z,97000.84
2023-03-27T19:49:22.300Z,97007.88
2023-03-27T19:54:41.984Z,97015.03
2023-03-27T19:59:45.386Z,97012.19
2023-03-27T20:04:50.235Z,97011.88
2023-03-27T20:09:55.311Z,97009.44
2023-03-27T20:15:10.936Z,97008.06
2023-03-27T20:20:20.093Z,97012.59
2023-03-27T20:25:23.490Z,97015.75
2023-03-27T20:30:27.656Z,97016.88
2023-03-27T20:35:36.607Z,97012.00
2023-03-27T20:45:53.124Z,96985.34
2023-03-27T20:50:58.322Z,96948.63
2023-03-27T20:56:03.850Z,96908.69
2023-03-27T21:01:09.465Z,96848.84
2023-03-27T21:06:17.399Z,96865.78
2023-03-27T21:11:20.996Z,96924.41
2023-03-27T21:16:24.732Z,96957.06
2023-03-27T21:21:29.572Z,96963.69
2023-03-27T21:26:33.507Z,96977.91
2023-03-27T21:31:36.862Z,96985.31
2023-03-27T21:36:42.011Z,96978.44
2023-03-27T21:41:46.731Z,96993.34
2023-03-27T21:46:50.109Z,97003.16
2023-03-27T21:51:55.233Z,97008.44
2023-03-27T21:56:58.766Z,97010.34
2023-03-27T22:02:02.428Z,97025.38
2023-03-27T22:07:07.447Z,97026.38
2023-03-27T22:12:11.174Z,97032.44
2023-03-27T22:17:14.597Z,97025.00
2023-03-27T22:22:19.398Z,97012.38
2023-03-27T22:27:23.277Z,96991.28
2023-03-27T22:32:27.242Z,96990.25
2023-03-27T22:37:32.172Z,96976.69
2023-03-27T22:42:35.774Z,96979.19
2023-03-27T22:47:39.240Z,96984.38
2023-03-27T22:52:44.064Z,96987.88
2023-03-27T22:57:47.485Z,96987.88
2023-03-27T23:02:51.100Z,96984.50
2023-03-27T23:07:55.965Z,96991.19
2023-03-27T23:12:59.396Z,96988.63
2023-03-27T23:18:03.672Z,96986.16
2023-03-27T23:23:08.527Z,96999.25
2023-03-27T23:28:12.166Z,96998.69
2023-03-27T23:33:15.560Z,97009.53
2023-03-27T23:38:20.447Z,97002.28
2023-03-27T23:43:23.934Z,97013.06
2023-03-27T23:48:27.993Z,97015.13
2023-03-27T23:53:33.079Z,97023.50
2023-03-27T23:58:37.527Z,97032.56
